Almozara, Spain
Current Conditions -  °F | °C
As of 11:30 AM on Sunday 23 Nov 2014 (Local Time) from LEZG Reporting Station
Clear Clear  
Wind Chill: 63°   Ceiling: Unl
Heat Index: 63°   Visibility: 6mi
Dew Point: 52°   Wind: 15mph
Humidity: 68%   Direction: 120°ESE
Pressure: 29.97"   Gusts: NA
Location:  41.66°N, 0.9°W
Report Text: LEZG 231030Z 12013KT CAVOK 17/11 Q1015
Loading
Personal Weather Stations






























Interactive Weather Map New forecast layout! Learn more

10-Day Weather Forecast

Advertisements
Track Severe Weather on mobile